createdAt,value
2018-05-17T00:00:04.450Z,19.40
2018-05-17T00:00:41.787Z,19.30
2018-05-17T00:01:20.039Z,19.40
2018-05-17T00:01:58.213Z,19.40
2018-05-17T00:02:35.476Z,19.30
2018-05-17T00:03:12.944Z,19.40
2018-05-17T00:03:50.169Z,19.30
2018-05-17T00:04:28.351Z,19.30
2018-05-17T00:05:05.508Z,19.30
2018-05-17T00:05:42.892Z,19.30
2018-05-17T00:06:20.360Z,19.30
2018-05-17T00:06:57.671Z,19.30
2018-05-17T00:07:34.998Z,19.30
2018-05-17T00:08:13.015Z,19.30
2018-05-17T00:08:51.201Z,19.30
2018-05-17T00:09:29.277Z,19.30
2018-05-17T00:10:06.704Z,19.30
2018-05-17T00:10:43.883Z,19.30
2018-05-17T00:11:21.260Z,19.30
2018-05-17T00:11:59.304Z,19.40
2018-05-17T00:12:36.742Z,19.30
2018-05-17T00:13:14.685Z,19.40
2018-05-17T00:13:52.078Z,19.30
2018-05-17T00:14:29.418Z,19.30
2018-05-17T00:15:07.530Z,19.30
2018-05-17T00:15:45.729Z,19.30
2018-05-17T00:16:23.921Z,19.30
2018-05-17T00:17:01.935Z,19.30
2018-05-17T00:17:39.271Z,19.30
2018-05-17T00:18:16.678Z,19.30
2018-05-17T00:18:54.142Z,19.30
2018-05-17T00:19:31.504Z,19.30
2018-05-17T00:20:09.516Z,19.30
2018-05-17T00:20:46.770Z,19.30
2018-05-17T00:21:24.166Z,19.30
2018-05-17T00:22:02.362Z,19.30
2018-05-17T00:22:39.782Z,19.30
2018-05-17T00:23:17.829Z,19.30
2018-05-17T00:23:55.231Z,19.30
2018-05-17T00:24:33.396Z,19.30
2018-05-17T00:25:10.755Z,19.30
2018-05-17T00:25:48.002Z,19.30
2018-05-17T00:26:25.938Z,19.30
2018-05-17T00:27:03.336Z,19.30
2018-05-17T00:27:40.655Z,19.30
2018-05-17T00:28:18.824Z,19.30
2018-05-17T00:28:56.117Z,19.30
2018-05-17T00:29:33.534Z,19.30
2018-05-17T00:30:11.772Z,19.30
2018-05-17T00:30:49.812Z,19.30
2018-05-17T00:31:27.222Z,19.30
2018-05-17T00:32:04.626Z,19.30
2018-05-17T00:32:41.883Z,19.30
2018-05-17T00:33:20.038Z,19.30
2018-05-17T00:33:57.500Z,19.30
2018-05-17T00:34:34.871Z,19.30
2018-05-17T00:35:12.030Z,19.30
2018-05-17T00:35:49.270Z,19.30
2018-05-17T00:36:26.733Z,19.30
2018-05-17T00:37:03.889Z,19.30
2018-05-17T00:37:41.299Z,19.30
2018-05-17T00:38:18.432Z,19.30
2018-05-17T00:38:55.711Z,19.30
2018-05-17T00:39:32.877Z,19.30
2018-05-17T00:40:10.389Z,19.20
2018-05-17T00:40:47.690Z,19.20
2018-05-17T00:41:24.975Z,19.20
2018-05-17T00:42:02.418Z,19.30
2018-05-17T00:42:40.525Z,19.20
2018-05-17T00:43:17.651Z,19.20
2018-05-17T00:43:54.806Z,19.30
2018-05-17T00:44:32.218Z,19.20
2018-05-17T00:45:10.390Z,19.20
2018-05-17T00:45:48.601Z,19.20
2018-05-17T00:46:25.981Z,19.20
2018-05-17T00:47:03.253Z,19.20
2018-05-17T00:47:41.462Z,19.20
2018-05-17T00:48:19.530Z,19.20
2018-05-17T00:48:56.974Z,19.20
2018-05-17T00:49:35.201Z,19.20
2018-05-17T00:50:13.409Z,19.20
2018-05-17T00:50:50.858Z,19.20
2018-05-17T00:51:28.988Z,19.30
2018-05-17T00:52:06.392Z,19.20
2018-05-17T00:52:43.614Z,19.20
2018-05-17T00:53:21.835Z,19.20
2018-05-17T00:53:59.146Z,19.20
2018-05-17T00:54:36.464Z,19.20
2018-05-17T00:55:14.574Z,19.20
2018-05-17T00:55:52.021Z,19.20
2018-05-17T00:56:30.058Z,19.20
2018-05-17T00:57:07.355Z,19.20
2018-05-17T00:57:45.519Z,19.20
2018-05-17T00:58:23.701Z,19.20
2018-05-17T00:59:01.142Z,19.20
2018-05-17T00:59:39.203Z,19.20
2018-05-17T01:00:16.533Z,19.20
2018-05-17T01:00:53.931Z,19.20
2018-05-17T01:01:32.136Z,19.20
2018-05-17T01:02:09.446Z,19.20
2018-05-17T01:02:47.610Z,19.20
2018-05-17T01:03:24.921Z,19.20
2018-05-17T01:04:02.243Z,19.20
2018-05-17T01:04:40.233Z,19.20
2018-05-17T01:05:17.585Z,19.20
2018-05-17T01:05:55.800Z,19.20
2018-05-17T01:06:33.143Z,19.20
2018-05-17T01:07:10.327Z,19.20
2018-05-17T01:07:47.502Z,19.20
2018-05-17T01:08:24.756Z,19.20
2018-05-17T01:09:02.054Z,19.20
2018-05-17T01:09:39.300Z,19.20
2018-05-17T01:10:17.445Z,19.20
2018-05-17T01:10:54.718Z,19.20
2018-05-17T01:11:32.098Z,19.20
2018-05-17T01:12:09.248Z,19.20
2018-05-17T01:12:47.464Z,19.20
2018-05-17T01:13:24.939Z,19.20
2018-05-17T01:14:02.930Z,19.30
2018-05-17T01:14:40.290Z,19.20
2018-05-17T01:15:17.533Z,19.20
2018-05-17T01:15:55.658Z,19.20
2018-05-17T01:16:33.029Z,19.20
2018-05-17T01:17:10.432Z,19.20
2018-05-17T01:17:47.856Z,19.20
2018-05-17T01:18:25.151Z,19.20
2018-05-17T01:19:02.544Z,19.30
2018-05-17T01:19:39.844Z,19.20
2018-05-17T01:20:17.822Z,19.30
2018-05-17T01:20:55.850Z,19.30
2018-05-17T01:21:33.209Z,19.30
2018-05-17T01:22:11.393Z,19.20
2018-05-17T01:22:48.811Z,19.30
2018-05-17T01:23:26.017Z,19.30
2018-05-17T01:24:03.416Z,19.30
2018-05-17T01:24:41.678Z,19.30
2018-05-17T01:25:18.950Z,19.30
2018-05-17T01:25:56.260Z,19.30
2018-05-17T01:26:33.634Z,19.30
2018-05-17T01:27:11.138Z,19.30
2018-05-17T01:27:48.428Z,19.30
2018-05-17T01:28:25.738Z,19.30
2018-05-17T01:29:03.953Z,19.30
2018-05-17T01:29:41.239Z,19.20
2018-05-17T01:30:18.552Z,19.30
2018-05-17T01:30:56.722Z,19.30
2018-05-17T01:31:33.993Z,19.20
2018-05-17T01:32:12.078Z,19.30
2018-05-17T01:32:49.544Z,19.30
2018-05-17T01:33:26.828Z,19.30
2018-05-17T01:34:04.927Z,19.30
2018-05-17T01:34:43.119Z,19.30
2018-05-17T01:35:20.529Z,19.30
2018-05-17T01:35:58.685Z,19.30
2018-05-17T01:36:36.880Z,19.30
2018-05-17T01:37:14.854Z,19.30
2018-05-17T01:37:52.006Z,19.30
2018-05-17T01:38:30.137Z,19.30
2018-05-17T01:39:08.240Z,19.30
2018-05-17T01:39:46.358Z,19.30
2018-05-17T01:40:23.563Z,19.20
2018-05-17T01:41:00.983Z,19.30
2018-05-17T01:41:38.248Z,19.30
2018-05-17T01:42:15.527Z,19.20
2018-05-17T01:42:52.817Z,19.30
2018-05-17T01:43:30.245Z,19.20
2018-05-17T01:44:08.351Z,19.20
2018-05-17T01:44:45.780Z,19.20
2018-05-17T01:45:23.718Z,19.30
2018-05-17T01:46:01.977Z,19.20
2018-05-17T01:46:40.028Z,19.20
2018-05-17T01:47:17.351Z,19.20
2018-05-17T01:47:54.727Z,19.20
2018-05-17T01:48:32.898Z,19.20
2018-05-17T01:49:10.122Z,19.20
2018-05-17T01:49:48.475Z,19.20
2018-05-17T01:50:25.855Z,19.20
2018-05-17T01:51:03.110Z,19.20
2018-05-17T01:51:40.499Z,19.20
2018-05-17T01:52:17.937Z,19.30
2018-05-17T01:52:55.298Z,19.20
2018-05-17T01:53:32.787Z,19.20
2018-05-17T01:54:10.047Z,19.20
2018-05-17T01:54:47.200Z,19.20
2018-05-17T01:55:24.495Z,19.30
2018-05-17T01:56:01.805Z,19.30
2018-05-17T01:56:39.150Z,19.30
2018-05-17T01:57:16.632Z,19.20
2018-05-17T01:57:54.678Z,19.20
2018-05-17T01:58:32.983Z,19.30
2018-05-17T01:59:10.339Z,19.20
2018-05-17T01:59:47.506Z,19.20
2018-05-17T02:00:25.490Z,19.20
2018-05-17T02:01:02.631Z,19.20
2018-05-17T02:01:40.160Z,19.20
2018-05-17T02:02:17.493Z,19.20
2018-05-17T02:02:55.603Z,19.20
2018-05-17T02:03:33.602Z,19.20
2018-05-17T02:04:11.027Z,19.20
2018-05-17T02:04:48.451Z,19.20
2018-05-17T02:05:25.848Z,19.20
2018-05-17T02:06:03.809Z,19.20
2018-05-17T02:06:41.263Z,19.20
2018-05-17T02:07:18.590Z,19.20
2018-05-17T02:07:55.838Z,19.20
2018-05-17T02:08:33.479Z,19.20
2018-05-17T02:09:10.665Z,19.20
2018-05-17T02:09:47.855Z,19.20
2018-05-17T02:10:25.118Z,19.20
2018-05-17T02:11:02.298Z,19.20
2018-05-17T02:11:39.504Z,19.20
2018-05-17T02:12:16.758Z,19.20
2018-05-17T02:12:54.938Z,19.20
2018-05-17T02:13:32.089Z,19.20
2018-05-17T02:14:09.372Z,19.20
2018-05-17T02:14:46.763Z,19.20
2018-05-17T02:15:24.237Z,19.20
2018-05-17T02:16:01.629Z,19.20
2018-05-17T02:16:39.018Z,19.20
2018-05-17T02:17:16.435Z,19.20
2018-05-17T02:17:53.589Z,19.20
2018-05-17T02:18:30.751Z,19.20
2018-05-17T02:19:08.969Z,19.20
2018-05-17T02:19:47.042Z,19.20
2018-05-17T02:20:24.386Z,19.20
2018-05-17T02:21:01.650Z,19.20
2018-05-17T02:21:39.915Z,19.20
2018-05-17T02:22:17.362Z,19.20
2018-05-17T02:22:54.478Z,19.20
2018-05-17T02:23:32.610Z,19.20
2018-05-17T02:24:09.831Z,19.20
2018-05-17T02:24:47.139Z,19.20
2018-05-17T02:25:24.428Z,19.20
2018-05-17T02:26:01.805Z,19.20
2018-05-17T02:26:39.242Z,19.20
2018-05-17T02:27:16.666Z,19.20
2018-05-17T02:27:54.835Z,19.20
2018-05-17T02:28:32.212Z,19.20
2018-05-17T02:29:10.405Z,19.20
2018-05-17T02:29:47.658Z,19.20
2018-05-17T02:30:25.879Z,19.20
2018-05-17T02:31:03.894Z,19.20
2018-05-17T02:31:41.922Z,19.20
2018-05-17T02:32:20.161Z,19.20
2018-05-17T02:32:57.517Z,19.20
2018-05-17T02:33:35.682Z,19.20
2018-05-17T02:34:12.904Z,19.20
2018-05-17T02:34:50.049Z,19.20
2018-05-17T02:35:27.215Z,19.20
2018-05-17T02:36:04.691Z,19.20
2018-05-17T02:36:42.840Z,19.20
2018-05-17T02:37:20.214Z,19.20
2018-05-17T02:37:58.306Z,19.20
2018-05-17T02:38:35.707Z,19.20
2018-05-17T02:39:13.097Z,19.20
2018-05-17T02:39:50.331Z,19.20
2018-05-17T02:40:28.347Z,19.20
2018-05-17T02:41:05.650Z,19.20
2018-05-17T02:41:43.799Z,19.20
2018-05-17T02:42:21.049Z,19.20
2018-05-17T02:42:58.411Z,19.20
2018-05-17T02:43:35.664Z,19.20
2018-05-17T02:44:13.048Z,19.20
2018-05-17T02:44:51.211Z,19.20
2018-05-17T02:45:28.409Z,19.10
2018-05-17T02:46:05.817Z,19.10
2018-05-17T02:46:43.048Z,19.20
2018-05-17T02:47:21.192Z,19.10
2018-05-17T02:47:58.551Z,19.20
2018-05-17T02:48:36.026Z,19.20
2018-05-17T02:49:13.337Z,19.20
2018-05-17T02:49:51.410Z,19.20
2018-05-17T02:50:28.862Z,19.20
2018-05-17T02:51:06.982Z,19.20
2018-05-17T02:51:45.203Z,19.20
2018-05-17T02:52:22.453Z,19.20
2018-05-17T02:52:59.908Z,19.20
2018-05-17T02:53:37.082Z,19.20
2018-05-17T02:54:14.467Z,19.20
2018-05-17T02:54:51.803Z,19.20
2018-05-17T02:55:29.224Z,19.20
2018-05-17T02:56:06.602Z,19.20
2018-05-17T02:56:44.830Z,19.20
2018-05-17T02:57:22.158Z,19.20
2018-05-17T02:57:59.371Z,19.30
2018-05-17T02:58:37.555Z,19.30
2018-05-17T02:59:16.031Z,19.30
2018-05-17T02:59:53.186Z,19.20
2018-05-17T03:00:31.338Z,19.20
2018-05-17T03:01:08.741Z,19.20
2018-05-17T03:01:45.984Z,19.30
2018-05-17T03:02:23.386Z,19.20
2018-05-17T03:03:00.812Z,19.30
2018-05-17T03:03:39.014Z,19.20
2018-05-17T03:04:17.167Z,19.20
2018-05-17T03:04:54.569Z,19.20
2018-05-17T03:05:32.593Z,19.30
2018-05-17T03:06:10.787Z,19.20
2018-05-17T03:06:48.064Z,19.20
2018-05-17T03:07:26.255Z,19.30
2018-05-17T03:08:03.635Z,19.20
2018-05-17T03:08:41.013Z,19.20
2018-05-17T03:09:18.407Z,19.20
2018-05-17T03:09:55.753Z,19.20
2018-05-17T03:10:33.034Z,19.20
2018-05-17T03:11:10.467Z,19.20
2018-05-17T03:12:31.657Z,19.30
2018-05-17T03:13:08.835Z,19.30
2018-05-17T03:13:46.986Z,19.30
2018-05-17T03:14:24.416Z,19.20
2018-05-17T03:15:02.464Z,19.20
2018-05-17T03:15:39.744Z,19.20
2018-05-17T03:16:17.089Z,19.20
2018-05-17T03:16:55.108Z,19.20
2018-05-17T03:17:32.332Z,19.20
2018-05-17T03:18:09.606Z,19.20
2018-05-17T03:18:46.995Z,19.20
2018-05-17T03:19:24.297Z,19.20
2018-05-17T03:20:01.443Z,19.20
2018-05-17T03:20:39.575Z,19.20
2018-05-17T03:21:16.906Z,19.20
2018-05-17T03:21:54.166Z,19.20
2018-05-17T03:22:31.399Z,19.20
2018-05-17T03:23:08.843Z,19.20
2018-05-17T03:23:46.364Z,19.20
2018-05-17T03:24:23.834Z,19.20
2018-05-17T03:25:00.982Z,19.20
2018-05-17T03:25:39.075Z,19.20
2018-05-17T03:26:16.456Z,19.20
2018-05-17T03:26:54.448Z,19.20
2018-05-17T03:27:31.770Z,19.20
2018-05-17T03:28:09.786Z,19.20
2018-05-17T03:28:46.965Z,19.20
2018-05-17T03:29:24.364Z,19.20
2018-05-17T03:30:02.507Z,19.20
2018-05-17T03:30:39.684Z,19.20
2018-05-17T03:31:17.838Z,19.20
2018-05-17T03:31:55.109Z,19.20
2018-05-17T03:32:32.353Z,19.20
2018-05-17T03:33:10.563Z,19.20
2018-05-17T03:33:47.996Z,19.20
2018-05-17T03:34:25.130Z,19.20
2018-05-17T03:35:02.505Z,19.20
2018-05-17T03:35:40.685Z,19.20
2018-05-17T03:36:18.046Z,19.20
2018-05-17T03:36:55.514Z,19.20
2018-05-17T03:37:32.906Z,19.20
2018-05-17T03:38:10.183Z,19.20
2018-05-17T03:38:48.473Z,19.20
2018-05-17T03:39:25.714Z,19.20
2018-05-17T03:40:03.213Z,19.20
2018-05-17T03:40:40.484Z,19.20
2018-05-17T03:41:17.667Z,19.20
2018-05-17T03:41:54.931Z,19.20
2018-05-17T03:42:32.147Z,19.20
2018-05-17T03:43:09.380Z,19.30
2018-05-17T03:43:46.828Z,19.30
2018-05-17T03:44:24.988Z,19.30
2018-05-17T03:45:02.283Z,19.30
2018-05-17T03:45:39.713Z,19.30
2018-05-17T03:46:17.718Z,19.30
2018-05-17T03:46:55.121Z,19.20
2018-05-17T03:47:33.124Z,19.30
2018-05-17T03:48:10.260Z,19.20
2018-05-17T03:48:47.631Z,19.20
2018-05-17T03:49:24.980Z,19.20
2018-05-17T03:50:03.015Z,19.20
2018-05-17T03:50:41.214Z,19.30
2018-05-17T03:51:18.617Z,19.30
2018-05-17T03:51:56.017Z,19.30
2018-05-17T03:52:34.169Z,19.30
2018-05-17T03:53:11.584Z,19.30
2018-05-17T03:53:49.534Z,19.30
2018-05-17T03:54:26.987Z,19.30
2018-05-17T03:55:04.385Z,19.30
2018-05-17T03:55:41.607Z,19.30
2018-05-17T03:56:18.794Z,19.30
2018-05-17T03:56:55.997Z,19.30
2018-05-17T03:57:34.194Z,19.30
2018-05-17T03:58:12.389Z,19.30
2018-05-17T03:58:49.849Z,19.30
2018-05-17T03:59:27.282Z,19.30
2018-05-17T04:00:05.436Z,19.30
2018-05-17T04:00:43.636Z,19.30
2018-05-17T04:01:20.972Z,19.30
2018-05-17T04:01:58.287Z,19.30
2018-05-17T04:02:35.758Z,19.30
2018-05-17T04:03:13.756Z,19.30
2018-05-17T04:03:51.148Z,19.30
2018-05-17T04:04:28.533Z,19.30
2018-05-17T04:05:05.980Z,19.30
2018-05-17T04:05:43.429Z,19.30
2018-05-17T04:06:20.814Z,19.30
2018-05-17T04:06:58.196Z,19.30
2018-05-17T04:07:36.330Z,19.30
2018-05-17T04:08:14.517Z,19.30
2018-05-17T04:08:51.938Z,19.30
2018-05-17T04:09:29.243Z,19.30
2018-05-17T04:10:06.980Z,19.30
2018-05-17T04:10:44.247Z,19.30
2018-05-17T04:11:21.649Z,19.30
2018-05-17T04:11:59.119Z,19.20
2018-05-17T04:12:37.223Z,19.30
2018-05-17T04:13:14.392Z,19.20
2018-05-17T04:13:51.546Z,19.20
2018-05-17T04:14:28.973Z,19.30
2018-05-17T04:15:06.363Z,19.30
2018-05-17T04:15:44.475Z,19.30
2018-05-17T04:16:21.712Z,19.30
2018-05-17T04:16:59.091Z,19.30
2018-05-17T04:17:37.308Z,19.20
2018-05-17T04:18:14.707Z,19.20
2018-05-17T04:18:52.863Z,19.20
2018-05-17T04:19:30.269Z,19.20
2018-05-17T04:20:07.706Z,19.20
2018-05-17T04:20:45.174Z,19.20
2018-05-17T04:21:22.609Z,19.20
2018-05-17T04:21:59.827Z,19.20
2018-05-17T04:22:38.066Z,19.20
2018-05-17T04:23:15.523Z,19.30
2018-05-17T04:23:53.631Z,19.30
2018-05-17T04:24:30.867Z,19.30
2018-05-17T04:25:08.269Z,19.30
2018-05-17T04:25:45.578Z,19.30
2018-05-17T04:26:22.809Z,19.30
2018-05-17T04:27:00.051Z,19.30
2018-05-17T04:27:37.413Z,19.30
2018-05-17T04:28:14.632Z,19.30
2018-05-17T04:28:51.932Z,19.30
2018-05-17T04:29:30.120Z,19.30
2018-05-17T04:30:07.346Z,19.30
2018-05-17T04:30:45.428Z,19.30
2018-05-17T04:31:22.650Z,19.30
2018-05-17T04:32:00.846Z,19.30
2018-05-17T04:32:38.231Z,19.30
2018-05-17T04:33:15.566Z,19.30
2018-05-17T04:33:53.621Z,19.30
2018-05-17T04:34:30.931Z,19.30
2018-05-17T04:35:09.094Z,19.30
2018-05-17T04:35:46.426Z,19.30
2018-05-17T04:36:24.648Z,19.30
2018-05-17T04:37:02.275Z,19.30
2018-05-17T04:37:40.373Z,19.30
2018-05-17T04:38:18.463Z,19.30
2018-05-17T04:38:55.866Z,19.30
2018-05-17T04:39:33.146Z,19.30
2018-05-17T04:40:10.380Z,19.30
2018-05-17T04:40:48.343Z,19.40
2018-05-17T04:41:25.644Z,19.30
2018-05-17T04:42:03.027Z,19.30
2018-05-17T04:42:40.226Z,19.40
2018-05-17T04:43:17.481Z,19.40
2018-05-17T04:43:54.675Z,19.40
2018-05-17T04:44:32.885Z,19.40
2018-05-17T04:45:11.127Z,19.40
2018-05-17T04:45:48.406Z,19.40
2018-05-17T04:46:25.621Z,19.40
2018-05-17T04:47:02.963Z,19.40
2018-05-17T04:47:41.095Z,19.40
2018-05-17T04:48:18.521Z,19.40
2018-05-17T04:48:55.737Z,19.40
2018-05-17T04:49:33.966Z,19.40
2018-05-17T04:50:12.418Z,19.50
2018-05-17T04:50:49.616Z,19.40
2018-05-17T04:51:27.853Z,19.50
2018-05-17T04:52:05.141Z,19.50
2018-05-17T04:52:43.130Z,19.50
2018-05-17T04:53:21.063Z,19.50
2018-05-17T04:53:58.447Z,19.50
2018-05-17T04:54:36.622Z,19.50
2018-05-17T04:55:14.047Z,19.50
2018-05-17T04:55:52.120Z,19.50
2018-05-17T04:56:29.493Z,19.50
2018-05-17T04:57:06.938Z,19.50
2018-05-17T04:57:44.300Z,19.50
2018-05-17T04:58:21.814Z,19.50
2018-05-17T04:58:59.220Z,19.50
2018-05-17T04:59:36.366Z,19.50
2018-05-17T05:00:13.643Z,19.50
2018-05-17T05:00:50.998Z,19.50
2018-05-17T05:01:28.934Z,19.50
2018-05-17T05:02:06.224Z,19.50
2018-05-17T05:02:43.520Z,19.50
2018-05-17T05:03:20.853Z,19.50
2018-05-17T05:03:58.110Z,19.50
2018-05-17T05:04:36.222Z,19.50
2018-05-17T05:05:13.686Z,19.50
2018-05-17T05:05:51.122Z,19.50
2018-05-17T05:06:28.278Z,19.50
2018-05-17T05:07:05.555Z,19.50
2018-05-17T05:07:42.795Z,19.50
2018-05-17T05:08:20.993Z,19.50
2018-05-17T05:08:58.458Z,19.50
2018-05-17T05:09:36.593Z,19.50
2018-05-17T05:10:14.018Z,19.50
2018-05-17T05:10:52.043Z,19.50
2018-05-17T05:11:30.169Z,19.50
2018-05-17T05:12:08.350Z,19.50
2018-05-17T05:12:45.521Z,19.50
2018-05-17T05:13:22.831Z,19.50
2018-05-17T05:14:00.029Z,19.50
2018-05-17T05:14:38.151Z,19.50
2018-05-17T05:15:16.116Z,19.50
2018-05-17T05:15:54.107Z,19.50
2018-05-17T05:16:31.477Z,19.50
2018-05-17T05:17:08.777Z,19.50
2018-05-17T05:17:46.924Z,19.50
2018-05-17T05:18:24.960Z,19.50
2018-05-17T05:19:02.194Z,19.50
2018-05-17T05:19:39.429Z,19.50
2018-05-17T05:20:16.633Z,19.60
2018-05-17T05:20:54.772Z,19.50
2018-05-17T05:21:32.071Z,19.50
2018-05-17T05:22:10.134Z,19.50
2018-05-17T05:22:47.477Z,19.50
2018-05-17T05:23:25.788Z,19.50
2018-05-17T05:24:03.035Z,19.50
2018-05-17T05:24:40.440Z,19.50
2018-05-17T05:25:18.679Z,19.50
2018-05-17T05:25:56.804Z,19.50
2018-05-17T05:26:34.257Z,19.50
2018-05-17T05:27:12.407Z,19.60
2018-05-17T05:27:49.651Z,19.50
2018-05-17T05:28:27.797Z,19.50
2018-05-17T05:29:05.200Z,19.50
2018-05-17T05:29:42.436Z,19.50
2018-05-17T05:30:20.538Z,19.50
2018-05-17T05:30:57.973Z,19.50
2018-05-17T05:31:35.463Z,19.50
2018-05-17T05:32:12.726Z,19.50
2018-05-17T05:32:49.962Z,19.50
2018-05-17T05:33:27.229Z,19.50
2018-05-17T05:34:04.611Z,19.50
2018-05-17T05:34:42.682Z,19.50
2018-05-17T05:35:20.042Z,19.50
2018-05-17T05:35:57.367Z,19.50
2018-05-17T05:36:35.310Z,19.50
2018-05-17T05:37:13.526Z,19.50
2018-05-17T05:37:50.831Z,19.50
2018-05-17T05:38:28.890Z,19.50
2018-05-17T05:39:06.166Z,19.50
2018-05-17T05:39:44.371Z,19.50
2018-05-17T05:40:22.581Z,19.50
2018-05-17T05:40:59.892Z,19.50
2018-05-17T05:41:37.790Z,19.50
2018-05-17T05:42:15.820Z,19.50
2018-05-17T05:42:52.994Z,19.50
2018-05-17T05:43:30.127Z,19.50
2018-05-17T05:44:08.245Z,19.50
2018-05-17T05:44:45.672Z,19.50
2018-05-17T05:45:23.810Z,19.50
2018-05-17T05:46:01.941Z,19.50
2018-05-17T05:46:39.317Z,19.50
2018-05-17T05:47:16.687Z,19.50
2018-05-17T05:47:54.647Z,19.50
2018-05-17T05:48:32.082Z,19.50
2018-05-17T05:49:09.534Z,19.50
2018-05-17T05:49:46.709Z,19.50
2018-05-17T05:50:23.855Z,19.50
2018-05-17T05:51:02.051Z,19.50
2018-05-17T05:51:40.140Z,19.50
2018-05-17T05:52:17.591Z,19.50
2018-05-17T05:52:55.022Z,19.50
2018-05-17T05:53:32.386Z,19.50
2018-05-17T05:54:10.585Z,19.50
2018-05-17T05:54:47.970Z,19.50
2018-05-17T05:55:25.402Z,19.50
2018-05-17T05:56:02.618Z,19.50
2018-05-17T05:56:39.867Z,19.50
2018-05-17T05:57:17.405Z,19.50
2018-05-17T05:57:54.677Z,19.50
2018-05-17T05:58:32.411Z,19.50
2018-05-17T05:59:09.716Z,19.50
2018-05-17T05:59:47.697Z,19.50
2018-05-17T06:00:25.765Z,19.50
2018-05-17T06:01:03.891Z,19.50
2018-05-17T06:01:41.338Z,19.50
2018-05-17T06:02:18.804Z,19.50
2018-05-17T06:02:56.804Z,19.50
2018-05-17T06:03:34.088Z,19.50
2018-05-17T06:04:12.195Z,19.50
2018-05-17T06:04:49.431Z,19.50
2018-05-17T06:05:26.762Z,19.50
2018-05-17T06:06:04.948Z,19.50
2018-05-17T06:06:42.289Z,19.50
2018-05-17T06:07:19.681Z,19.50
2018-05-17T06:07:57.859Z,19.50
2018-05-17T06:08:35.262Z,19.50
2018-05-17T06:09:13.338Z,19.50
2018-05-17T06:09:50.584Z,19.50
2018-05-17T06:10:27.835Z,19.50
2018-05-17T06:11:06.036Z,19.50
2018-05-17T06:11:43.216Z,19.50
2018-05-17T06:12:20.390Z,19.60
2018-05-17T06:12:57.862Z,19.60
2018-05-17T06:13:35.263Z,19.60
2018-05-17T06:14:13.514Z,19.60
2018-05-17T06:14:50.770Z,19.60
2018-05-17T06:15:28.747Z,19.60
2018-05-17T06:16:06.175Z,19.60
2018-05-17T06:16:44.306Z,19.60
2018-05-17T06:17:22.565Z,19.60
2018-05-17T06:17:59.738Z,19.60
2018-05-17T06:18:37.116Z,19.60
2018-05-17T06:19:14.328Z,19.60
2018-05-17T06:19:51.581Z,19.60
2018-05-17T06:20:29.012Z,19.60
2018-05-17T06:21:07.090Z,19.60
2018-05-17T06:21:44.350Z,19.60
2018-05-17T06:22:21.568Z,19.60
2018-05-17T06:22:59.718Z,19.70
2018-05-17T06:23:37.109Z,19.60
2018-05-17T06:24:14.495Z,19.60
2018-05-17T06:24:51.932Z,19.60
2018-05-17T06:25:29.209Z,19.70
2018-05-17T06:26:07.244Z,19.60
2018-05-17T06:26:44.660Z,19.60
2018-05-17T06:27:22.811Z,19.60
2018-05-17T06:27:59.958Z,19.60
2018-05-17T06:28:37.978Z,19.70
2018-05-17T06:29:15.196Z,19.70
2018-05-17T06:29:52.496Z,19.70
2018-05-17T06:30:29.871Z,19.60
2018-05-17T06:31:07.865Z,19.60
2018-05-17T06:31:45.098Z,19.60
2018-05-17T06:32:23.339Z,19.70
2018-05-17T06:33:00.688Z,19.70
2018-05-17T06:33:38.073Z,19.60
2018-05-17T06:34:16.094Z,19.70
2018-05-17T06:34:53.518Z,19.70
2018-05-17T06:35:30.741Z,19.70
2018-05-17T06:36:07.991Z,19.60
2018-05-17T06:36:45.217Z,19.70
2018-05-17T06:37:23.443Z,19.70
2018-05-17T06:38:00.868Z,19.70
2018-05-17T06:38:39.106Z,19.70
2018-05-17T06:39:17.238Z,19.70
2018-05-17T06:39:54.711Z,19.70
2018-05-17T06:40:32.013Z,19.70
2018-05-17T06:41:09.426Z,19.70
2018-05-17T06:41:47.462Z,19.70
2018-05-17T06:42:24.805Z,19.70
2018-05-17T06:43:02.113Z,19.70
2018-05-17T06:43:39.609Z,19.70
2018-05-17T06:44:16.767Z,19.70
2018-05-17T06:44:53.950Z,19.70
2018-05-17T06:45:32.058Z,19.70
2018-05-17T06:46:10.005Z,19.70
2018-05-17T06:46:47.411Z,19.70
2018-05-17T06:47:25.587Z,19.70
2018-05-17T06:48:03.774Z,19.70
2018-05-17T06:48:41.158Z,19.70
2018-05-17T06:49:19.253Z,19.70
2018-05-17T06:49:56.654Z,19.70
2018-05-17T06:50:34.836Z,19.80
2018-05-17T06:51:12.214Z,19.70
2018-05-17T06:51:49.599Z,19.70
2018-05-17T06:52:27.493Z,19.70
2018-05-17T06:53:04.824Z,19.70
2018-05-17T06:53:42.123Z,19.70
2018-05-17T06:54:19.496Z,19.70
2018-05-17T06:54:56.952Z,19.70
2018-05-17T06:55:34.357Z,19.70
2018-05-17T06:56:11.735Z,19.80
2018-05-17T06:56:48.933Z,19.70
2018-05-17T06:57:26.352Z,19.70
2018-05-17T06:58:03.672Z,19.70
2018-05-17T06:58:41.845Z,19.70
2018-05-17T06:59:19.275Z,19.70
2018-05-17T06:59:56.623Z,19.70
2018-05-17T07:00:34.617Z,19.70
2018-05-17T07:01:12.087Z,19.70
2018-05-17T07:01:49.196Z,19.70
2018-05-17T07:02:26.439Z,19.70
2018-05-17T07:03:03.703Z,19.70
2018-05-17T07:03:41.879Z,19.80
2018-05-17T07:04:19.112Z,19.70
2018-05-17T07:04:56.486Z,19.80
2018-05-17T07:05:33.826Z,19.80
2018-05-17T07:06:12.013Z,19.80
2018-05-17T07:06:49.235Z,19.70
2018-05-17T07:07:27.474Z,19.80
2018-05-17T07:08:05.566Z,19.70
2018-05-17T07:08:42.995Z,19.80
2018-05-17T07:09:20.271Z,19.80
2018-05-17T07:09:58.403Z,19.80
2018-05-17T07:10:36.604Z,19.80
2018-05-17T07:11:14.006Z,19.80
2018-05-17T07:11:52.173Z,19.80
2018-05-17T07:12:29.617Z,19.80
2018-05-17T07:13:07.699Z,19.80
2018-05-17T07:13:45.615Z,19.80
2018-05-17T07:14:23.819Z,19.80
2018-05-17T07:15:01.922Z,19.80
2018-05-17T07:15:39.322Z,19.80
2018-05-17T07:16:16.565Z,19.80
2018-05-17T07:16:54.561Z,19.80
2018-05-17T07:17:32.672Z,19.80
2018-05-17T07:18:10.109Z,19.80
2018-05-17T07:18:48.368Z,19.80
2018-05-17T07:19:25.348Z,19.80
2018-05-17T07:20:02.539Z,19.80
2018-05-17T07:20:40.446Z,19.80
2018-05-17T07:21:17.798Z,19.80
2018-05-17T07:21:55.277Z,19.80
2018-05-17T07:22:32.548Z,19.80
2018-05-17T07:23:09.897Z,19.80
2018-05-17T07:23:47.252Z,19.90
2018-05-17T07:24:25.434Z,19.80
2018-05-17T07:25:03.648Z,19.90
2018-05-17T07:25:41.829Z,19.90
2018-05-17T07:26:19.263Z,19.90
2018-05-17T07:26:56.658Z,19.90
2018-05-17T07:27:33.839Z,19.90
2018-05-17T07:28:11.342Z,19.90
2018-05-17T07:28:48.585Z,19.90
2018-05-17T07:29:25.847Z,19.90
2018-05-17T07:30:03.238Z,20.00
2018-05-17T07:30:40.419Z,20.00
2018-05-17T07:31:17.946Z,20.00
2018-05-17T07:31:55.296Z,20.00
2018-05-17T07:32:32.589Z,20.00
2018-05-17T07:33:09.799Z,20.00
2018-05-17T07:33:47.098Z,20.00
2018-05-17T07:34:25.106Z,20.00
2018-05-17T07:35:02.435Z,19.90
2018-05-17T07:35:39.759Z,20.00
2018-05-17T07:36:17.159Z,20.00
2018-05-17T07:36:55.238Z,20.00
2018-05-17T07:37:33.320Z,20.00
2018-05-17T07:38:10.857Z,20.00
2018-05-17T07:38:48.053Z,20.00
2018-05-17T07:39:26.160Z,19.90
2018-05-17T07:40:03.579Z,19.90
2018-05-17T07:40:41.637Z,20.00
2018-05-17T07:41:19.012Z,19.90
2018-05-17T07:41:56.261Z,20.00
2018-05-17T07:42:33.659Z,20.00
2018-05-17T07:43:11.639Z,20.00
2018-05-17T07:43:49.087Z,19.90
2018-05-17T07:44:26.529Z,20.00
2018-05-17T07:45:03.947Z,20.00
2018-05-17T07:45:41.336Z,20.00
2018-05-17T07:46:18.807Z,20.00
2018-05-17T07:46:56.093Z,19.90
2018-05-17T07:47:34.310Z,19.90
2018-05-17T07:48:11.749Z,19.90
2018-05-17T07:48:49.068Z,19.90
2018-05-17T07:49:27.251Z,19.90
2018-05-17T07:50:04.439Z,19.90
2018-05-17T07:50:41.906Z,19.90
2018-05-17T07:51:19.897Z,19.90
2018-05-17T07:51:58.096Z,19.90
2018-05-17T07:52:35.553Z,19.90
2018-05-17T07:53:13.778Z,19.90
2018-05-17T07:53:51.018Z,19.90
2018-05-17T07:54:29.240Z,19.90
2018-05-17T07:55:06.561Z,19.80
2018-05-17T07:55:44.714Z,19.90
2018-05-17T07:56:22.143Z,19.80
2018-05-17T07:56:59.308Z,19.80
2018-05-17T07:57:36.506Z,19.80
2018-05-17T07:58:13.910Z,19.80
2018-05-17T07:58:51.899Z,19.90
2018-05-17T07:59:29.253Z,19.90
2018-05-17T08:00:06.532Z,19.90
2018-05-17T08:00:43.931Z,19.90
2018-05-17T08:01:22.129Z,19.90
2018-05-17T08:01:59.518Z,19.80
2018-05-17T08:02:36.942Z,19.80
2018-05-17T08:03:14.314Z,19.90
2018-05-17T08:03:51.518Z,19.90
2018-05-17T08:04:28.862Z,19.90